Time;durP1;ratioP1;P1;durP2;ratioP2;P2;SDS_P1;SDS_P2;PMS_P1;PMS_P2;Temp;Humidity;BMP_temperature;BMP_pressure;BME280_temperature;BME280_humidity;BME280_pressure;Samples;Min_cycle;Max_cycle;Signal;HPM_P1;HPM_P2
2021/08/12 00:00:08;;;;;;;;;;;;;;;24.33;63.14;100082.23;459986;114;921391;-66
2021/08/12 00:01:11;;;;;;;;;;;;;;;24.31;63.25;100084.54;458667;115;921398;-66
2021/08/12 00:02:15;;;;;;;;;;;;;;;24.30;63.29;100082.06;467223;114;921366;-66
2021/08/12 00:03:18;;;;;;;;;;;;;;;24.29;63.31;100088.77;465374;114;921417;-66
2021/08/12 00:04:22;;;;;;;;;;;;;;;24.29;63.33;100080.41;460972;114;922811;-66
2021/08/12 00:05:26;;;;;;;;;;;;;;;24.29;63.45;100085.98;462943;113;923507;-66
2021/08/12 00:06:30;;;;;;;;;;;;;;;24.29;63.41;100084.02;462910;113;923276;-67
2021/08/12 00:07:33;;;;;;;;;;;;;;;24.31;63.40;100075.36;460974;114;922672;-66
2021/08/12 00:08:37;;;;;;;;;;;;;;;24.33;63.35;100070.27;459037;115;923314;-66
2021/08/12 00:09:41;;;;;;;;;;;;;;;24.33;63.29;100065.52;463932;111;923131;-64
2021/08/12 00:10:50;;;;;;;;;;;;;;;24.35;63.23;100068.82;463472;113;921521;-65
2021/08/12 00:11:50;;;;;;;;;;;;;;;24.37;63.18;100071.27;463651;113;921466;-66
2021/08/12 00:12:53;;;;;;;;;;;;;;;24.37;63.13;100072.09;463321;114;921417;-65
2021/08/12 00:13:57;;;;;;;;;;;;;;;24.37;63.05;100060.95;465054;114;921618;-65
2021/08/12 00:15:01;;;;;;;;;;;;;;;24.38;63.00;100061.77;456028;115;921617;-65
2021/08/12 00:16:05;;;;;;;;;;;;;;;24.39;62.93;100067.03;458757;115;922778;-65
2021/08/12 00:17:09;;;;;;;;;;;;;;;24.40;62.86;100067.86;461309;111;922641;-66
2021/08/12 00:18:12;;;;;;;;;;;;;;;24.40;62.85;100065.90;452812;118;922618;-63
2021/08/12 00:19:15;;;;;;;;;;;;;;;24.40;62.84;100079.83;452670;115;923156;-67
2021/08/12 00:20:19;;;;;;;;;;;;;;;24.40;62.86;100074.27;452838;117;923817;-66
2021/08/12 00:21:24;;;;;;;;;;;;;;;24.41;62.82;100080.66;453045;115;922676;-66
2021/08/12 00:22:27;;;;;;;;;;;;;;;24.41;62.81;100069.52;451790;115;922750;-66
2021/08/12 00:23:31;;;;;;;;;;;;;;;24.42;62.79;100077.53;451940;117;922683;-66
2021/08/12 00:24:34;;;;;;;;;;;;;;;24.42;62.81;100071.95;452577;117;922867;-66
2021/08/12 00:25:38;;;;;;;;;;;;;;;24.42;62.76;100079.52;451725;116;921450;-66
2021/08/12 00:26:42;;;;;;;;;;;;;;;24.40;62.77;100077.05;452501;116;922783;-66
2021/08/12 00:27:47;;;;;;;;;;;;;;;24.38;62.85;100079.31;452153;116;922676;-66
2021/08/12 00:28:51;;;;;;;;;;;;;;;24.37;62.88;100085.20;452802;117;923076;-66
2021/08/12 00:29:55;;;;;;;;;;;;;;;24.37;62.91;100093.56;453177;116;922560;-67
2021/08/12 00:30:59;;;;;;;;;;;;;;;24.35;62.94;100084.72;452666;115;922702;-67
2021/08/12 00:32:02;;;;;;;;;;;;;;;24.34;62.97;100095.03;452090;112;922662;-66
2021/08/12 00:33:06;;;;;;;;;;;;;;;24.32;62.94;100094.52;452981;117;922653;-65
2021/08/12 00:34:10;;;;;;;;;;;;;;;24.31;63.03;100090.11;452588;118;922642;-64
2021/08/12 00:35:14;;;;;;;;;;;;;;;24.29;63.05;100097.95;452794;116;922648;-67
2021/08/12 00:36:19;;;;;;;;;;;;;;;24.27;63.07;100089.08;452641;116;921490;-67
2021/08/12 00:37:23;;;;;;;;;;;;;;;24.27;63.12;100094.66;452573;118;923056;-64
2021/08/12 00:38:26;;;;;;;;;;;;;;;24.26;63.14;100095.00;452324;118;923968;-66
2021/08/12 00:39:31;;;;;;;;;;;;;;;24.25;63.13;100094.17;452815;117;922621;-65
2021/08/12 00:40:34;;;;;;;;;;;;;;;24.23;63.18;100090.86;441307;118;922921;-67
2021/08/12 00:41:39;;;;;;;;;;;;;;;24.23;63.16;100088.08;444092;118;922784;-64
2021/08/12 00:42:44;;;;;;;;;;;;;;;24.23;63.17;100090.86;453048;116;922613;-66
2021/08/12 00:43:47;;;;;;;;;;;;;;;24.22;63.14;100089.22;452658;116;921557;-66
2021/08/12 00:44:51;;;;;;;;;;;;;;;24.21;63.16;100087.56;452717;117;921409;-65
2021/08/12 00:45:54;;;;;;;;;;;;;;;24.21;63.19;100090.34;453649;118;921381;-65
2021/08/12 00:46:57;;;;;;;;;;;;;;;24.20;63.19;100094.30;452996;112;921460;-66
2021/08/12 00:48:03;;;;;;;;;;;;;;;24.20;63.20;100097.08;453073;117;921430;-67
2021/08/12 00:49:07;;;;;;;;;;;;;;;24.19;63.17;100092.65;444009;120;921603;-67
2021/08/12 00:50:13;;;;;;;;;;;;;;;24.21;63.14;100084.77;445750;118;921558;-67
2021/08/12 00:51:18;;;;;;;;;;;;;;;24.19;63.14;100086.25;452701;116;921460;-67
2021/08/12 00:52:22;;;;;;;;;;;;;;;24.18;63.07;100087.38;452857;116;921661;-67
2021/08/12 00:53:26;;;;;;;;;;;;;;;24.15;63.08;100086.01;444208;118;921561;-67
2021/08/12 00:54:29;;;;;;;;;;;;;;;24.14;63.14;100089.96;445535;118;921564;-67
2021/08/12 00:55:33;;;;;;;;;;;;;;;24.12;63.14;100089.44;452069;116;921609;-67
2021/08/12 00:56:36;;;;;;;;;;;;;;;24.10;63.14;100094.50;452689;116;921466;-67
2021/08/12 00:57:39;;;;;;;;;;;;;;;24.07;63.19;100086.78;452944;117;921414;-67
2021/08/12 00:58:43;;;;;;;;;;;;;;;24.06;63.21;100085.13;453442;118;921445;-67
2021/08/12 00:59:48;;;;;;;;;;;;;;;24.02;63.27;100093.31;452827;116;922697;-67
2021/08/12 01:00:51;;;;;;;;;;;;;;;24.01;63.33;100094.44;451935;117;922646;-67
2021/08/12 01:01:58;;;;;;;;;;;;;;;24.01;63.35;100096.41;452210;115;922605;-65
2021/08/12 01:03:02;;;;;;;;;;;;;;;24.00;63.35;100094.75;453193;117;921500;-66
2021/08/12 01:04:06;;;;;;;;;;;;;;;23.97;63.34;100096.22;453091;116;922640;-66
2021/08/12 01:05:11;;;;;;;;;;;;;;;23.95;63.40;100092.09;452290;116;922637;-66
2021/08/12 01:06:18;;;;;;;;;;;;;;;23.92;63.39;100098.30;452078;117;921589;-66
2021/08/12 01:07:28;;;;;;;;;;;;;;;23.90;63.46;100092.21;453023;116;923111;-66
2021/08/12 01:08:41;;;;;;;;;;;;;;;23.86;63.49;100088.42;452348;117;922662;-66
2021/08/12 01:09:47;;;;;;;;;;;;;;;23.84;63.55;100099.04;451670;116;921704;-67
2021/08/12 01:10:55;;;;;;;;;;;;;;;23.84;63.61;100096.25;452045;116;921597;-65
2021/08/12 01:12:00;;;;;;;;;;;;;;;23.84;63.68;100091.52;454866;111;922544;-65
2021/08/12 01:13:24;;;;;;;;;;;;;;;23.84;63.61;100088.73;463567;113;922635;-66
2021/08/12 01:14:38;;;;;;;;;;;;;;;23.85;63.62;100083.98;462454;115;922674;-65
2021/08/12 01:15:42;;;;;;;;;;;;;;;23.86;63.60;100082.85;462848;115;922616;-65
2021/08/12 01:16:47;;;;;;;;;;;;;;;23.88;63.57;100091.69;463095;114;921451;-65
2021/08/12 01:17:53;;;;;;;;;;;;;;;23.87;63.47;100096.44;462641;114;922621;-67
2021/08/12 01:19:03;;;;;;;;;;;;;;;23.87;63.43;100085.30;462572;115;924174;-66
2021/08/12 01:20:09;;;;;;;;;;;;;;;23.88;63.42;100084.16;463452;114;922762;-66
2021/08/12 01:21:29;;;;;;;;;;;;;;;23.86;63.42;100092.03;462552;114;922659;-66
2021/08/12 01:22:35;;;;;;;;;;;;;;;23.86;63.46;100088.42;462705;115;922974;-66
2021/08/12 01:23:40;;;;;;;;;;;;;;;23.86;63.54;100093.99;462415;114;923118;-66
2021/08/12 01:24:45;;;;;;;;;;;;;;;23.86;63.52;100105.13;462146;115;922719;-66
2021/08/12 01:25:49;;;;;;;;;;;;;;;23.85;63.54;100101.52;462403;113;922365;-66
2021/08/12 01:26:56;;;;;;;;;;;;;;;23.86;63.51;100097.59;462918;114;922722;-66
2021/08/12 01:28:01;;;;;;;;;;;;;;;23.88;63.46;100097.27;462765;114;922657;-65
2021/08/12 01:29:06;;;;;;;;;;;;;;;23.89;63.38;100094.17;462680;114;922700;-64
2021/08/12 01:30:14;;;;;;;;;;;;;;;23.89;63.35;100087.78;462759;114;923091;-65
2021/08/12 01:31:20;;;;;;;;;;;;;;;23.89;63.27;100085.82;463350;114;922677;-66
2021/08/12 01:32:27;;;;;;;;;;;;;;;23.91;63.25;100091.08;463188;113;922789;-65
2021/08/12 01:33:35;;;;;;;;;;;;;;;23.91;63.19;100091.08;463014;114;922598;-65
2021/08/12 01:34:44;;;;;;;;;;;;;;;23.90;63.08;100076.33;462676;114;921632;-64
2021/08/12 01:35:49;;;;;;;;;;;;;;;23.89;63.06;100083.03;462864;114;921523;-66
2021/08/12 01:36:54;;;;;;;;;;;;;;;23.88;63.15;100084.16;462944;115;922638;-65
2021/08/12 01:38:00;;;;;;;;;;;;;;;23.88;63.20;100081.38;462838;115;921559;-67
2021/08/12 01:39:05;;;;;;;;;;;;;;;23.88;63.13;100078.59;462083;114;921481;-67
2021/08/12 01:40:09;;;;;;;;;;;;;;;23.89;62.94;100079.42;462247;115;921619;-66
2021/08/12 01:41:13;;;;;;;;;;;;;;;23.88;62.90;100081.38;463339;114;921478;-67
2021/08/12 01:42:17;;;;;;;;;;;;;;;23.89;62.88;100083.03;453622;116;921552;-66
2021/08/12 01:43:22;;;;;;;;;;;;;;;23.89;62.84;100079.42;454890;114;921662;-66
2021/08/12 01:44:31;;;;;;;;;;;;;;;23.88;62.64;100077.77;462946;115;921540;-67
2021/08/12 01:45:36;;;;;;;;;;;;;;;23.87;62.62;100076.95;462996;115;921418;-67
2021/08/12 01:46:46;;;;;;;;;;;;;;;23.87;62.67;100074.16;462868;115;921519;-66
2021/08/12 01:47:48;;;;;;;;;;;;;;;23.89;62.68;100074.68;459914;114;921503;-66
2021/08/12 01:48:53;;;;;;;;;;;;;;;23.89;62.69;100082.20;463186;114;921414;-65
2021/08/12 01:49:57;;;;;;;;;;;;;;;23.89;62.65;100079.42;462503;114;921389;-66
2021/08/12 01:51:00;;;;;;;;;;;;;;;23.88;62.67;100080.56;462460;114;921453;-66
2021/08/12 01:52:05;;;;;;;;;;;;;;;23.87;62.67;100088.09;463224;115;921489;-66
2021/08/12 01:53:10;;;;;;;;;;;;;;;23.86;62.68;100083.68;463590;114;921458;-66
2021/08/12 01:54:14;;;;;;;;;;;;;;;23.87;62.63;100085.30;462216;114;921556;-66
2021/08/12 01:55:19;;;;;;;;;;;;;;;23.88;62.61;100083.34;462911;114;921539;-66
2021/08/12 01:56:25;;;;;;;;;;;;;;;23.89;62.60;100087.78;463341;115;921508;-67
2021/08/12 01:57:28;;;;;;;;;;;;;;;23.91;62.62;100091.08;463151;115;921378;-67
2021/08/12 01:58:34;;;;;;;;;;;;;;;23.92;62.58;100089.95;462819;113;921502;-66
2021/08/12 01:59:38;;;;;;;;;;;;;;;23.94;62.50;100084.87;462730;115;923145;-66
2021/08/12 02:00:49;;;;;;;;;;;;;;;23.95;62.26;100090.12;463140;114;923471;-66
2021/08/12 02:01:53;;;;;;;;;;;;;;;23.97;62.12;100085.08;462871;115;922673;-63
2021/08/12 02:02:58;;;;;;;;;;;;;;;24.00;62.12;100080.83;462321;114;921945;-65
2021/08/12 02:04:03;;;;;;;;;;;;;;;24.02;61.82;100086.91;462342;114;922656;-67
2021/08/12 02:05:10;;;;;;;;;;;;;;;24.03;61.70;100082.99;462612;114;923147;-67
2021/08/12 02:06:14;;;;;;;;;;;;;;;24.03;61.66;100089.39;445180;116;922901;-67
2021/08/12 02:07:18;;;;;;;;;;;;;;;24.06;61.62;100087.92;451032;116;922661;-66
2021/08/12 02:08:22;;;;;;;;;;;;;;;24.07;61.62;100090.39;450559;118;923171;-66
2021/08/12 02:09:28;;;;;;;;;;;;;;;24.08;61.59;100091.22;450798;118;922700;-65
2021/08/12 02:10:31;;;;;;;;;;;;;;;24.08;61.51;100094.01;451881;116;922671;-65
2021/08/12 02:11:35;;;;;;;;;;;;;;;24.09;61.39;100096.45;451291;116;923019;-66
2021/08/12 02:12:39;;;;;;;;;;;;;;;24.09;61.32;100090.09;451643;117;924586;-66
2021/08/12 02:13:44;;;;;;;;;;;;;;;24.07;61.32;100095.97;452371;116;923712;-66
2021/08/12 02:14:47;;;;;;;;;;;;;;;24.07;61.19;100095.14;452207;116;923446;-66
2021/08/12 02:15:52;;;;;;;;;;;;;;;24.05;61.13;100094.63;451994;117;922663;-65
2021/08/12 02:16:55;;;;;;;;;;;;;;;24.03;61.08;100105.27;451957;116;922635;-66
2021/08/12 02:17:59;;;;;;;;;;;;;;;24.01;61.07;100093.62;451817;117;923974;-66
2021/08/12 02:19:04;;;;;;;;;;;;;;;24.00;61.03;100092.79;452174;116;924595;-65
2021/08/12 02:20:13;;;;;;;;;;;;;;;24.00;60.91;100092.79;451707;117;923001;-65
2021/08/12 02:21:20;;;;;;;;;;;;;;;24.01;60.82;100099.19;452084;116;922685;-66
2021/08/12 02:22:25;;;;;;;;;;;;;;;24.02;60.70;100095.27;452041;116;922736;-65
2021/08/12 02:23:37;;;;;;;;;;;;;;;24.02;60.71;100098.88;450889;117;924101;-64
2021/08/12 02:24:42;;;;;;;;;;;;;;;24.03;60.74;100099.70;443948;118;921910;-66
2021/08/12 02:26:00;;;;;;;;;;;;;;;24.03;60.67;100102.48;445028;118;921575;-66
2021/08/12 02:27:06;;;;;;;;;;;;;;;24.04;60.67;100106.89;444243;118;922713;-66
2021/08/12 02:28:11;;;;;;;;;;;;;;;24.05;60.68;100102.98;447791;116;921897;-66
2021/08/12 02:29:14;;;;;;;;;;;;;;;24.05;60.72;100098.23;451731;117;922674;-67
2021/08/12 02:30:18;;;;;;;;;;;;;;;24.06;60.72;100099.89;452037;117;923177;-66
2021/08/12 02:31:22;;;;;;;;;;;;;;;24.06;60.67;100094.31;451790;116;923175;-65
2021/08/12 02:32:28;;;;;;;;;;;;;;;24.05;60.66;100094.63;440851;118;922768;-66
2021/08/12 02:33:36;;;;;;;;;;;;;;;24.05;60.46;100089.05;436675;120;921956;-65
2021/08/12 02:34:40;;;;;;;;;;;;;;;24.04;60.41;100099.36;452834;116;921601;-66
2021/08/12 02:35:44;;;;;;;;;;;;;;;24.03;60.42;100099.70;460098;114;921878;-66
2021/08/12 02:36:47;;;;;;;;;;;;;;;24.01;60.35;100097.23;460669;115;921525;-65
2021/08/12 02:37:51;;;;;;;;;;;;;;;24.01;60.16;100101.97;459737;116;921615;-65
2021/08/12 02:38:55;;;;;;;;;;;;;;;24.00;59.54;100103.10;459585;114;921484;-66
2021/08/12 02:40:00;;;;;;;;;;;;;;;24.00;59.44;100103.10;460272;115;921351;-66
2021/08/12 02:41:05;;;;;;;;;;;;;;;24.03;59.46;100108.06;460383;114;921480;-66
2021/08/12 02:42:09;;;;;;;;;;;;;;;24.03;59.53;100111.67;460650;115;921390;-67
2021/08/12 02:43:13;;;;;;;;;;;;;;;24.04;59.39;100115.25;460735;114;921580;-67
2021/08/12 02:44:17;;;;;;;;;;;;;;;24.06;59.28;100118.55;460226;115;921413;-66
2021/08/12 02:45:21;;;;;;;;;;;;;;;24.07;59.26;100109.06;460141;114;921507;-65
2021/08/12 02:46:26;;;;;;;;;;;;;;;24.09;59.25;100115.95;460177;115;923614;-65
2021/08/12 02:47:30;;;;;;;;;;;;;;;24.11;59.21;100110.08;460199;115;922665;-65
2021/08/12 02:48:36;;;;;;;;;;;;;;;24.11;59.14;100112.86;459727;114;922910;-66
2021/08/12 02:49:41;;;;;;;;;;;;;;;24.13;59.02;100121.73;460068;114;923611;-66
2021/08/12 02:50:45;;;;;;;;;;;;;;;24.14;58.93;100119.78;460171;115;922737;-66
2021/08/12 02:51:50;;;;;;;;;;;;;;;24.13;58.85;100121.73;459823;115;922656;-67
2021/08/12 02:52:54;;;;;;;;;;;;;;;24.13;58.85;100121.73;459251;116;922413;-66
2021/08/12 02:54:00;;;;;;;;;;;;;;;24.13;58.87;100124.52;459622;114;923311;-66
2021/08/12 02:55:04;;;;;;;;;;;;;;;24.13;58.83;100127.30;460351;115;922630;-67
2021/08/12 02:56:10;;;;;;;;;;;;;;;24.14;58.77;100128.95;459967;114;922688;-66
2021/08/12 02:57:15;;;;;;;;;;;;;;;24.15;58.81;100129.78;451459;115;924794;-64
2021/08/12 02:58:19;;;;;;;;;;;;;;;24.15;58.82;100135.36;450684;115;922684;-66
2021/08/12 02:59:23;;;;;;;;;;;;;;;24.15;58.79;100141.72;460309;115;922770;-67
2021/08/12 03:00:28;;;;;;;;;;;;;;;24.15;58.70;100150.08;458973;114;922637;-66
2021/08/12 03:01:34;;;;;;;;;;;;;;;24.14;58.71;100142.89;459721;114;922670;-66
2021/08/12 03:02:39;;;;;;;;;;;;;;;24.15;58.72;100150.08;460048;114;922651;-67
2021/08/12 03:03:44;;;;;;;;;;;;;;;24.14;58.69;100151.24;460129;116;923120;-66
2021/08/12 03:04:47;;;;;;;;;;;;;;;24.14;58.68;100155.98;459792;114;922703;-64
2021/08/12 03:05:53;;;;;;;;;;;;;;;24.13;58.68;100152.37;459863;114;922657;-65
2021/08/12 03:06:58;;;;;;;;;;;;;;;24.12;58.69;100159.08;460084;115;922725;-66
2021/08/12 03:08:02;;;;;;;;;;;;;;;24.12;58.70;100159.08;458433;115;924124;-65
2021/08/12 03:09:07;;;;;;;;;;;;;;;24.11;58.73;100154.64;460356;114;921605;-65
2021/08/12 03:10:15;;;;;;;;;;;;;;;24.11;58.75;100160.22;459285;114;921725;-65
2021/08/12 03:11:19;;;;;;;;;;;;;;;24.11;58.72;100157.42;460344;114;922612;-66
2021/08/12 03:12:23;;;;;;;;;;;;;;;24.12;58.68;100153.51;459767;116;921437;-65
2021/08/12 03:13:26;;;;;;;;;;;;;;;24.13;58.56;100149.59;461272;113;921458;-65
2021/08/12 03:14:30;;;;;;;;;;;;;;;24.13;58.51;100149.59;449634;115;922783;-65
2021/08/12 03:15:34;;;;;;;;;;;;;;;24.14;58.40;100153.20;448961;116;922747;-66
2021/08/12 03:16:38;;;;;;;;;;;;;;;24.14;58.30;100154.03;460898;114;923142;-65
2021/08/12 03:17:43;;;;;;;;;;;;;;;24.12;58.27;100153.51;460921;114;923339;-66
2021/08/12 03:18:48;;;;;;;;;;;;;;;24.11;58.19;100161.04;460848;114;921456;-66
2021/08/12 03:19:52;;;;;;;;;;;;;;;24.10;58.20;100153.81;445488;117;921570;-67
2021/08/12 03:20:56;;;;;;;;;;;;;;;24.09;58.23;100154.16;444141;118;921498;-66
2021/08/12 03:22:04;;;;;;;;;;;;;;;24.06;58.26;100150.02;460776;115;921572;-65
2021/08/12 03:23:09;;;;;;;;;;;;;;;24.05;58.33;100158.68;460708;115;921466;-65
2021/08/12 03:24:12;;;;;;;;;;;;;;;24.02;58.33;100160.16;461357;115;921424;-68
2021/08/12 03:25:16;;;;;;;;;;;;;;;24.02;58.37;100162.11;461327;115;921448;-66
2021/08/12 03:26:19;;;;;;;;;;;;;;;24.02;58.42;100164.89;461212;114;921963;-66
2021/08/12 03:27:22;;;;;;;;;;;;;;;24.01;58.38;100166.85;461337;115;921515;-65
2021/08/12 03:28:26;;;;;;;;;;;;;;;24.01;58.42;100160.45;461567;115;921564;-66
2021/08/12 03:29:30;;;;;;;;;;;;;;;24.00;58.45;100161.59;461209;116;921673;-66
2021/08/12 03:30:33;;;;;;;;;;;;;;;24.00;58.50;100167.98;461329;114;921606;-66
2021/08/12 03:31:37;;;;;;;;;;;;;;;24.01;58.56;100168.81;461320;114;922096;-66
2021/08/12 03:32:40;;;;;;;;;;;;;;;24.00;58.63;100164.38;461531;116;921612;-66
2021/08/12 03:33:43;;;;;;;;;;;;;;;23.99;58.65;100169.12;460968;115;921924;-64
2021/08/12 03:34:47;;;;;;;;;;;;;;;23.97;58.68;100170.59;460527;114;921498;-65
2021/08/12 03:35:51;;;;;;;;;;;;;;;23.95;58.75;100165.32;460901;115;921465;-66
2021/08/12 03:36:54;;;;;;;;;;;;;;;23.94;58.84;100173.98;460862;116;921798;-65
2021/08/12 03:37:57;;;;;;;;;;;;;;;23.93;58.94;100169.55;460470;115;921603;-66
2021/08/12 03:39:01;;;;;;;;;;;;;;;23.93;58.97;100172.33;458556;115;922621;-66
2021/08/12 03:40:05;;;;;;;;;;;;;;;23.93;59.02;100172.33;460863;114;922657;-66
2021/08/12 03:41:09;;;;;;;;;;;;;;;23.93;59.12;100173.16;461027;116;923139;-66
2021/08/12 03:42:13;;;;;;;;;;;;;;;23.94;59.16;100168.41;460513;116;922655;-64
2021/08/12 03:43:17;;;;;;;;;;;;;;;23.96;59.20;100171.72;460681;113;922558;-65
2021/08/12 03:44:21;;;;;;;;;;;;;;;23.99;59.14;100171.08;461166;116;922871;-66
2021/08/12 03:45:26;;;;;;;;;;;;;;;23.99;59.10;100171.91;459695;115;922667;-65
2021/08/12 03:46:30;;;;;;;;;;;;;;;24.01;58.99;100171.59;461035;114;922647;-64
2021/08/12 03:47:33;;;;;;;;;;;;;;;24.03;58.94;100177.69;460856;114;923141;-63
2021/08/12 03:48:37;;;;;;;;;;;;;;;24.03;58.87;100177.69;461003;115;922682;-65
2021/08/12 03:49:41;;;;;;;;;;;;;;;24.04;58.84;100177.35;461085;116;922677;-66
2021/08/12 03:50:44;;;;;;;;;;;;;;;24.07;58.80;100178.70;460457;114;922715;-65
2021/08/12 03:51:48;;;;;;;;;;;;;;;24.08;58.75;100177.57;460081;113;922734;-67
2021/08/12 03:52:52;;;;;;;;;;;;;;;24.09;58.77;100180.02;460450;114;921551;-68
2021/08/12 03:53:56;;;;;;;;;;;;;;;24.12;58.72;100178.58;461168;116;922630;-65
2021/08/12 03:55:00;;;;;;;;;;;;;;;24.14;58.69;100170.74;460811;115;922618;-66
2021/08/12 03:56:05;;;;;;;;;;;;;;;24.17;58.69;100180.41;460624;115;922659;-66
2021/08/12 03:57:08;;;;;;;;;;;;;;;24.20;58.63;100175.09;460684;116;922662;-64
2021/08/12 03:58:13;;;;;;;;;;;;;;;24.23;58.54;100184.77;460373;115;922675;-65
2021/08/12 03:59:18;;;;;;;;;;;;;;;24.26;58.40;100182.16;461023;116;922699;-65
2021/08/12 04:00:22;;;;;;;;;;;;;;;24.28;58.30;100179.89;461150;114;922834;-65
2021/08/12 04:01:26;;;;;;;;;;;;;;;24.31;58.23;100179.28;461044;115;922669;-66
2021/08/12 04:02:30;;;;;;;;;;;;;;;24.35;58.05;100185.03;461238;114;923117;-65
2021/08/12 04:03:34;;;;;;;;;;;;;;;24.37;57.80;100188.31;460596;114;923529;-65
2021/08/12 04:04:38;;;;;;;;;;;;;;;24.39;57.62;100180.47;461087;116;922753;-65
2021/08/12 04:05:42;;;;;;;;;;;;;;;24.42;57.55;100183.44;460946;114;922701;-67
2021/08/12 04:06:45;;;;;;;;;;;;;;;24.43;57.22;100182.30;460365;116;922680;-66
2021/08/12 04:07:49;;;;;;;;;;;;;;;24.46;57.07;100183.64;460293;114;922765;-66
2021/08/12 04:08:55;;;;;;;;;;;;;;;24.46;56.99;100181.69;460476;114;921977;-66
2021/08/12 04:09:58;;;;;;;;;;;;;;;24.48;56.87;100179.38;460039;115;923148;-66
2021/08/12 04:11:02;;;;;;;;;;;;;;;24.48;56.79;100173.81;450813;118;922704;-65
2021/08/12 04:12:06;;;;;;;;;;;;;;;24.50;56.53;100181.86;449508;116;922727;-66
2021/08/12 04:13:09;;;;;;;;;;;;;;;24.49;56.58;100181.03;460628;114;922712;-66
2021/08/12 04:14:12;;;;;;;;;;;;;;;24.49;56.69;100185.78;462010;115;922676;-64
2021/08/12 04:15:16;;;;;;;;;;;;;;;24.49;56.80;100183.00;461721;115;923032;-66
2021/08/12 04:16:20;;;;;;;;;;;;;;;24.49;56.70;100185.78;462013;113;923081;-63
2021/08/12 04:17:24;;;;;;;;;;;;;;;24.49;56.54;100189.40;462361;114;922665;-67
2021/08/12 04:18:27;;;;;;;;;;;;;;;24.48;56.54;100195.28;462545;115;921354;-65
2021/08/12 04:19:30;;;;;;;;;;;;;;;24.46;56.62;100192.83;462640;114;921437;-65
2021/08/12 04:20:34;;;;;;;;;;;;;;;24.46;56.63;100195.62;462276;115;921560;-65
2021/08/12 04:21:37;;;;;;;;;;;;;;;24.46;56.67;100206.77;461696;115;921434;-65
2021/08/12 04:22:41;;;;;;;;;;;;;;;24.47;56.76;100210.38;462633;114;921580;-66
2021/08/12 04:23:44;;;;;;;;;;;;;;;24.46;56.79;100209.55;462762;115;921543;-66
2021/08/12 04:24:48;;;;;;;;;;;;;;;24.47;56.86;100221.53;462705;114;921467;-66
2021/08/12 04:25:52;;;;;;;;;;;;;;;24.48;56.89;100217.58;462279;114;921555;-66
2021/08/12 04:26:55;;;;;;;;;;;;;;;24.48;56.80;100221.19;462423;115;921437;-66
2021/08/12 04:28:00;;;;;;;;;;;;;;;24.49;56.73;100216.45;452309;115;921565;-67
2021/08/12 04:29:04;;;;;;;;;;;;;;;24.49;56.71;100216.45;452664;115;922125;-65
2021/08/12 04:30:08;;;;;;;;;;;;;;;24.50;56.79;100218.09;462322;115;921514;-66
2021/08/12 04:31:12;;;;;;;;;;;;;;;24.50;56.68;100218.92;462692;115;923250;-65
2021/08/12 04:32:15;;;;;;;;;;;;;;;24.53;56.62;100222.23;462594;115;921510;-66
2021/08/12 04:33:20;;;;;;;;;;;;;;;24.56;56.66;100216.84;462588;114;921592;-66
2021/08/12 04:34:24;;;;;;;;;;;;;;;24.59;56.65;100224.55;462194;114;922832;-64
2021/08/12 04:35:28;;;;;;;;;;;;;;;24.63;56.38;100220.02;462400;115;922665;-66
2021/08/12 04:36:31;;;;;;;;;;;;;;;24.67;56.36;100220.19;461161;114;922501;-66
2021/08/12 04:37:42;;;;;;;;;;;;;;;24.69;56.04;100223.50;453922;115;924319;-65
2021/08/12 04:38:44;;;;;;;;;;;;;;;24.70;55.89;100227.94;455118;115;922871;-66
2021/08/12 04:39:48;;;;;;;;;;;;;;;24.70;55.79;100225.15;462346;115;922669;-67
2021/08/12 04:40:53;;;;;;;;;;;;;;;24.69;55.83;100235.48;462497;115;922483;-65
2021/08/12 04:41:56;;;;;;;;;;;;;;;24.68;55.87;100227.42;461614;114;923575;-65
2021/08/12 04:43:02;;;;;;;;;;;;;;;24.68;55.88;100236.61;461878;115;922659;-66
2021/08/12 04:44:06;;;;;;;;;;;;;;;24.66;55.85;100233.30;462515;115;923586;-64
2021/08/12 04:45:11;;;;;;;;;;;;;;;24.65;55.91;100237.23;462133;113;922739;-66
2021/08/12 04:46:15;;;;;;;;;;;;;;;24.64;55.95;100232.81;462024;115;922675;-67
2021/08/12 04:47:18;;;;;;;;;;;;;;;24.64;55.68;100232.81;462811;114;922678;-67
2021/08/12 04:48:22;;;;;;;;;;;;;;;24.63;55.80;100236.73;462630;115;922566;-66
2021/08/12 04:49:26;;;;;;;;;;;;;;;24.64;55.94;100243.14;462161;114;922672;-66
2021/08/12 04:50:33;;;;;;;;;;;;;;;24.65;55.80;100236.41;461783;115;922836;-67
2021/08/12 04:51:39;;;;;;;;;;;;;;;24.67;55.81;100237.75;461882;115;921720;-65
2021/08/12 04:52:43;;;;;;;;;;;;;;;24.70;55.80;100244.66;462471;115;922679;-65
2021/08/12 04:53:47;;;;;;;;;;;;;;;24.71;55.68;100249.91;454564;115;922711;-66
2021/08/12 04:54:51;;;;;;;;;;;;;;;24.73;55.74;100244.02;455355;115;923914;-66
2021/08/12 04:55:55;;;;;;;;;;;;;;;24.72;55.58;100245.98;462672;115;921992;-66
2021/08/12 04:56:59;;;;;;;;;;;;;;;24.74;55.54;100245.67;462465;114;922636;-66
2021/08/12 04:58:04;;;;;;;;;;;;;;;24.75;55.60;100239.79;462027;113;922692;-65
2021/08/12 04:59:08;;;;;;;;;;;;;;;24.77;54.83;100240.27;462074;114;922631;-65
2021/08/12 05:00:13;;;;;;;;;;;;;;;24.78;54.83;100241.10;462616;115;923089;-64
2021/08/12 05:01:20;;;;;;;;;;;;;;;24.80;54.85;100241.62;462054;114;922966;-66
2021/08/12 05:02:24;;;;;;;;;;;;;;;24.82;54.85;100240.14;462038;114;922665;-70
2021/08/12 05:03:27;;;;;;;;;;;;;;;24.87;54.87;100241.97;461511;114;922659;-71
2021/08/12 05:04:32;;;;;;;;;;;;;;;24.90;54.67;100244.17;460088;115;922696;-70
2021/08/12 05:05:35;;;;;;;;;;;;;;;24.94;54.48;100236.81;459410;114;922820;-72
2021/08/12 05:06:39;;;;;;;;;;;;;;;24.97;54.38;100236.19;460060;114;921639;-72
2021/08/12 05:07:43;;;;;;;;;;;;;;;25.00;53.97;100243.08;461610;115;921537;-71
2021/08/12 05:08:47;;;;;;;;;;;;;;;25.02;53.78;100240.81;454257;115;923198;-71
2021/08/12 05:09:53;;;;;;;;;;;;;;;25.04;53.52;100242.12;453216;115;921757;-71
2021/08/12 05:10:56;;;;;;;;;;;;;;;25.07;53.39;100243.46;462356;115;921605;-72
2021/08/12 05:12:00;;;;;;;;;;;;;;;25.09;53.47;100238.36;462422;114;921480;-72
2021/08/12 05:13:03;;;;;;;;;;;;;;;25.11;53.47;100239.70;462051;115;921407;-71
2021/08/12 05:14:07;;;;;;;;;;;;;;;25.14;53.30;100241.84;462681;114;921761;-71
2021/08/12 05:15:10;;;;;;;;;;;;;;;25.19;53.32;100238.12;462834;113;921628;-72
2021/08/12 05:16:14;;;;;;;;;;;;;;;25.21;53.40;100236.64;462327;115;921457;-72
2021/08/12 05:17:18;;;;;;;;;;;;;;;25.23;53.02;100239.94;462784;115;921473;-71
2021/08/12 05:18:21;;;;;;;;;;;;;;;25.26;53.06;100235.67;462722;115;921555;-72
2021/08/12 05:19:24;;;;;;;;;;;;;;;25.28;53.06;100237.02;462527;113;921661;-72
2021/08/12 05:20:28;;;;;;;;;;;;;;;25.31;53.04;100239.14;461822;114;921407;-71
2021/08/12 05:21:32;;;;;;;;;;;;;;;25.35;53.04;100239.34;461556;115;921575;-71
2021/08/12 05:22:35;;;;;;;;;;;;;;;25.39;52.77;100243.13;462312;113;921560;-71
2021/08/12 05:23:39;;;;;;;;;;;;;;;25.42;52.86;100233.27;462071;114;921577;-71
2021/08/12 05:24:42;;;;;;;;;;;;;;;25.46;52.85;100237.09;463069;114;921536;-71
2021/08/12 05:25:46;;;;;;;;;;;;;;;25.50;52.93;100244.49;462523;114;923127;-72
2021/08/12 05:26:49;;;;;;;;;;;;;;;25.53;52.78;100238.25;462324;113;922723;-71
2021/08/12 05:27:53;;;;;;;;;;;;;;;25.59;52.36;100244.55;462220;115;923116;-72